createdAt,value
2019-04-30T00:00:13.236Z,29.20
2019-04-30T00:01:15.183Z,29.00
2019-04-30T00:02:13.262Z,28.90
2019-04-30T00:03:17.975Z,31.10
2019-04-30T00:04:13.283Z,27.40
2019-04-30T00:05:15.130Z,28.40
2019-04-30T00:06:13.307Z,28.70
2019-04-30T00:07:15.477Z,31.30
2019-04-30T00:08:13.328Z,28.00
2019-04-30T00:09:15.152Z,29.50
2019-04-30T00:10:15.381Z,30.60
2019-04-30T00:11:17.953Z,30.20
2019-04-30T00:12:13.389Z,29.40
2019-04-30T00:13:17.557Z,33.30
2019-04-30T00:14:15.166Z,29.50
2019-04-30T00:16:15.243Z,31.70
2019-04-30T00:17:15.840Z,31.70
2019-04-30T00:18:15.415Z,30.30
2019-04-30T00:19:15.793Z,29.70
2019-04-30T00:20:15.131Z,30.30
2019-04-30T00:21:15.148Z,30.80
2019-04-30T00:22:15.678Z,30.20
2019-04-30T00:23:13.528Z,30.70
2019-04-30T00:24:13.539Z,30.00
2019-04-30T00:25:15.212Z,30.00
2019-04-30T00:26:17.007Z,29.30
2019-04-30T00:27:15.111Z,30.10
2019-04-30T00:28:15.150Z,31.40
2019-04-30T00:29:19.228Z,31.00
2019-04-30T00:30:15.345Z,30.90
2019-04-30T00:31:17.602Z,30.00
2019-04-30T00:32:13.638Z,30.20
2019-04-30T00:33:15.219Z,32.80
2019-04-30T00:34:15.124Z,30.90
2019-04-30T00:35:16.203Z,31.30
2019-04-30T00:36:14.836Z,31.10
2019-04-30T00:37:18.346Z,29.70
2019-04-30T00:38:15.139Z,32.10
2019-04-30T00:39:16.200Z,31.50
2019-04-30T00:40:15.287Z,31.00
2019-04-30T00:41:15.449Z,29.10
2019-04-30T00:42:17.293Z,30.10
2019-04-30T00:43:15.443Z,31.00
2019-04-30T00:45:15.486Z,30.40
2019-04-30T00:46:17.363Z,32.40
2019-04-30T00:47:15.420Z,29.70
2019-04-30T00:48:19.427Z,29.10
2019-04-30T00:49:18.576Z,29.10
2019-04-30T00:50:14.956Z,29.60
2019-04-30T00:51:20.827Z,30.90
2019-04-30T00:52:15.370Z,31.10
2019-04-30T00:53:14.789Z,30.70
2019-04-30T00:54:15.242Z,29.20
2019-04-30T00:55:15.007Z,29.80
2019-04-30T00:56:15.662Z,29.60
2019-04-30T00:57:15.173Z,29.40
2019-04-30T00:58:17.498Z,29.30
2019-04-30T00:59:15.090Z,29.60
2019-04-30T01:00:19.734Z,29.60
2019-04-30T01:01:15.256Z,29.30
2019-04-30T01:02:20.112Z,29.60
2019-04-30T01:03:15.391Z,29.10
2019-04-30T01:04:15.099Z,30.80
2019-04-30T01:05:15.695Z,30.60
2019-04-30T01:06:17.209Z,29.10
2019-04-30T01:07:15.581Z,28.50
2019-04-30T01:08:15.359Z,27.70
2019-04-30T01:09:15.569Z,29.00
2019-04-30T01:10:15.178Z,27.40
2019-04-30T01:11:15.421Z,29.70
2019-04-30T01:12:19.166Z,26.80
2019-04-30T01:13:14.143Z,27.50
2019-04-30T01:14:14.152Z,27.90
2019-04-30T01:15:14.647Z,29.20
2019-04-30T01:16:14.211Z,29.30
2019-04-30T01:17:14.196Z,27.50
2019-04-30T01:18:14.209Z,28.50
2019-04-30T01:19:27.628Z,26.70
2019-04-30T01:20:14.225Z,26.60
2019-04-30T01:21:14.248Z,26.90
2019-04-30T01:22:14.406Z,28.40
2019-04-30T01:23:14.264Z,29.40
2019-04-30T01:24:14.275Z,27.80
2019-04-30T01:25:14.289Z,27.60
2019-04-30T01:26:14.298Z,26.00
2019-04-30T01:27:14.325Z,25.10
2019-04-30T01:28:16.322Z,27.20
2019-04-30T01:29:14.352Z,26.70
2019-04-30T01:30:18.716Z,27.10
2019-04-30T01:31:14.370Z,26.40
2019-04-30T01:32:17.359Z,27.70
2019-04-30T01:33:14.595Z,27.90
2019-04-30T01:34:14.411Z,26.70
2019-04-30T01:35:14.429Z,28.20
2019-04-30T01:36:14.435Z,26.90
2019-04-30T01:37:14.769Z,28.50
2019-04-30T01:38:14.466Z,27.60
2019-04-30T01:39:14.480Z,29.30
2019-04-30T01:40:14.485Z,29.70
2019-04-30T01:41:14.516Z,27.90
2019-04-30T01:42:14.527Z,27.40
2019-04-30T01:43:14.539Z,29.00
2019-04-30T01:44:14.532Z,28.20
2019-04-30T01:45:14.547Z,30.10
2019-04-30T01:46:14.557Z,30.60
2019-04-30T01:47:14.581Z,29.80
2019-04-30T01:48:14.581Z,29.40
2019-04-30T01:49:14.590Z,29.50
2019-04-30T01:50:14.625Z,31.20
2019-04-30T01:51:20.411Z,29.00
2019-04-30T01:52:14.631Z,29.50
2019-04-30T01:53:14.651Z,30.00
2019-04-30T01:54:20.850Z,30.30
2019-04-30T01:55:14.715Z,30.60
2019-04-30T01:56:14.696Z,29.30
2019-04-30T01:57:14.709Z,30.40
2019-04-30T01:58:14.718Z,30.80
2019-04-30T01:59:14.730Z,35.10
2019-04-30T02:00:14.730Z,32.00
2019-04-30T02:01:14.747Z,29.20
2019-04-30T02:02:14.759Z,29.30
2019-04-30T02:03:14.776Z,28.10
2019-04-30T02:04:14.793Z,29.70
2019-04-30T02:05:14.813Z,29.80
2019-04-30T02:06:14.821Z,30.00
2019-04-30T02:07:14.822Z,31.40
2019-04-30T02:08:14.850Z,30.00
2019-04-30T02:09:14.848Z,30.00
2019-04-30T02:10:14.868Z,29.60
2019-04-30T02:11:14.879Z,31.90
2019-04-30T02:12:14.880Z,30.80
2019-04-30T02:13:14.907Z,31.20
2019-04-30T02:14:14.915Z,30.20
2019-04-30T02:15:14.933Z,29.30
2019-04-30T02:16:14.946Z,30.30
2019-04-30T02:17:14.975Z,29.70
2019-04-30T02:18:14.962Z,31.20
2019-04-30T02:19:14.969Z,30.50
2019-04-30T02:20:14.994Z,33.10
2019-04-30T02:21:15.000Z,30.60
2019-04-30T02:22:15.012Z,30.90
2019-04-30T02:23:15.032Z,29.80
2019-04-30T02:24:15.045Z,28.30
2019-04-30T02:25:15.045Z,28.30
2019-04-30T02:27:15.151Z,29.60
2019-04-30T02:28:15.130Z,29.20
2019-04-30T02:29:15.115Z,29.50
2019-04-30T02:30:15.111Z,29.60
2019-04-30T02:31:15.125Z,31.20
2019-04-30T02:32:15.139Z,32.10
2019-04-30T02:33:15.157Z,30.30
2019-04-30T02:34:15.182Z,30.70
2019-04-30T02:35:15.184Z,30.50
2019-04-30T02:36:15.232Z,28.50
2019-04-30T02:37:15.203Z,31.40
2019-04-30T02:38:15.223Z,30.10
2019-04-30T02:39:15.225Z,29.40
2019-04-30T02:40:15.235Z,29.90
2019-04-30T02:41:15.304Z,31.90
2019-04-30T02:42:15.272Z,32.60
2019-04-30T02:43:15.278Z,30.40
2019-04-30T02:44:15.289Z,32.70
2019-04-30T02:45:15.296Z,29.80
2019-04-30T02:46:15.342Z,31.30
2019-04-30T02:47:15.326Z,30.60
2019-04-30T02:48:15.369Z,32.00
2019-04-30T02:49:15.363Z,33.20
2019-04-30T02:50:19.802Z,30.60
2019-04-30T02:51:15.385Z,30.70
2019-04-30T02:52:15.390Z,28.70
2019-04-30T02:53:15.426Z,29.10
2019-04-30T02:54:15.432Z,31.80
2019-04-30T02:55:15.426Z,30.80
2019-04-30T02:56:15.450Z,32.50
2019-04-30T02:57:15.521Z,32.50
2019-04-30T02:58:15.479Z,31.10
2019-04-30T02:59:15.503Z,33.00
2019-04-30T03:00:15.488Z,31.50
2019-04-30T03:01:15.501Z,29.50
2019-04-30T03:02:15.512Z,33.60
2019-04-30T03:03:15.519Z,32.90
2019-04-30T03:04:15.535Z,31.20
2019-04-30T03:05:15.563Z,28.80
2019-04-30T03:06:15.570Z,30.80
2019-04-30T03:07:15.577Z,33.60
2019-04-30T03:08:15.591Z,33.60
2019-04-30T03:09:15.604Z,33.30
2019-04-30T03:10:15.609Z,31.10
2019-04-30T03:11:15.629Z,30.60
2019-04-30T03:12:15.633Z,31.10
2019-04-30T03:13:15.682Z,31.00
2019-04-30T03:14:15.666Z,29.70
2019-04-30T03:15:15.669Z,29.20
2019-04-30T03:16:15.691Z,31.60
2019-04-30T03:17:15.725Z,30.40
2019-04-30T03:18:15.722Z,31.40
2019-04-30T03:19:15.736Z,30.50
2019-04-30T03:20:31.787Z,30.70
2019-04-30T03:21:15.752Z,31.80
2019-04-30T03:22:15.765Z,29.10
2019-04-30T03:23:15.775Z,31.50
2019-04-30T03:24:15.811Z,32.40
2019-04-30T03:25:15.791Z,29.40
2019-04-30T03:26:15.830Z,31.70
2019-04-30T03:27:15.830Z,30.20
2019-04-30T03:28:15.831Z,31.00
2019-04-30T03:29:15.961Z,28.50
2019-04-30T03:30:15.886Z,29.30
2019-04-30T03:31:15.867Z,30.40
2019-04-30T03:32:15.887Z,31.10
2019-04-30T03:33:15.908Z,29.00
2019-04-30T03:34:23.186Z,30.40
2019-04-30T03:35:16.037Z,29.80
2019-04-30T03:36:15.932Z,28.80
2019-04-30T03:37:15.950Z,32.90
2019-04-30T03:38:15.962Z,30.80
2019-04-30T03:39:15.970Z,31.00
2019-04-30T03:40:15.993Z,28.70
2019-04-30T03:41:15.996Z,29.50
2019-04-30T03:42:16.015Z,30.30
2019-04-30T03:43:16.039Z,29.00
2019-04-30T03:44:21.824Z,29.30
2019-04-30T03:45:16.195Z,29.40
2019-04-30T03:46:16.066Z,32.40
2019-04-30T03:47:16.076Z,31.90
2019-04-30T03:48:16.078Z,28.80
2019-04-30T03:49:16.103Z,29.20
2019-04-30T03:50:16.106Z,29.30
2019-04-30T03:51:16.116Z,29.70
2019-04-30T03:52:16.127Z,28.00
2019-04-30T03:53:16.157Z,29.10
2019-04-30T03:54:16.155Z,29.00
2019-04-30T03:55:16.179Z,27.90
2019-04-30T03:56:16.191Z,30.60
2019-04-30T03:57:16.207Z,28.30
2019-04-30T03:58:16.207Z,30.40
2019-04-30T03:59:16.228Z,28.30
2019-04-30T04:00:16.232Z,29.20
2019-04-30T04:01:16.244Z,30.50
2019-04-30T04:02:16.249Z,31.30
2019-04-30T04:03:16.280Z,31.40
2019-04-30T04:04:16.666Z,29.80
2019-04-30T04:05:16.292Z,30.40
2019-04-30T04:06:16.300Z,30.00
2019-04-30T04:07:20.091Z,28.90
2019-04-30T04:08:16.377Z,31.20
2019-04-30T04:09:16.358Z,29.30
2019-04-30T04:10:16.376Z,31.50
2019-04-30T04:11:16.379Z,29.40
2019-04-30T04:12:16.394Z,32.60
2019-04-30T04:13:16.438Z,29.20
2019-04-30T04:14:16.412Z,31.20
2019-04-30T04:15:16.414Z,30.20
2019-04-30T04:16:16.423Z,29.90
2019-04-30T04:17:16.440Z,28.60
2019-04-30T04:18:16.448Z,31.50
2019-04-30T04:19:16.460Z,30.50
2019-04-30T04:20:16.468Z,31.00
2019-04-30T04:21:17.330Z,28.70
2019-04-30T04:22:16.501Z,31.00
2019-04-30T04:23:19.093Z,30.40
2019-04-30T04:24:16.539Z,31.50
2019-04-30T04:25:16.531Z,30.40
2019-04-30T04:26:16.560Z,29.60
2019-04-30T04:27:16.560Z,29.50
2019-04-30T04:28:16.575Z,30.60
2019-04-30T04:29:19.368Z,30.30
2019-04-30T04:30:16.614Z,30.30
2019-04-30T04:31:19.077Z,30.10
2019-04-30T04:32:16.624Z,30.70
2019-04-30T04:33:16.650Z,33.70
2019-04-30T04:34:19.447Z,29.90
2019-04-30T04:35:19.482Z,35.00
2019-04-30T04:36:16.733Z,32.20
2019-04-30T04:37:19.126Z,32.50
2019-04-30T04:39:16.721Z,32.20
2019-04-30T04:40:16.766Z,31.80
2019-04-30T04:41:19.593Z,34.80
2019-04-30T04:42:19.131Z,31.70
2019-04-30T04:43:16.748Z,32.80
2019-04-30T04:44:19.570Z,32.60
2019-04-30T04:45:19.585Z,32.40
2019-04-30T04:46:16.888Z,30.20
2019-04-30T04:47:19.447Z,30.20
2019-04-30T04:48:19.926Z,31.70
2019-04-30T04:49:16.828Z,32.80
2019-04-30T04:50:17.011Z,31.70
2019-04-30T04:51:31.257Z,35.30
2019-04-30T04:52:16.883Z,33.50
2019-04-30T04:53:19.325Z,30.00
2019-04-30T04:54:16.896Z,31.90
2019-04-30T04:55:16.914Z,32.50
2019-04-30T04:56:19.034Z,32.00
2019-04-30T04:57:19.523Z,32.50
2019-04-30T04:58:21.166Z,32.70
2019-04-30T04:59:16.958Z,30.00
2019-04-30T05:00:19.229Z,30.70
2019-04-30T05:01:16.981Z,30.80
2019-04-30T05:02:19.469Z,30.80
2019-04-30T05:03:17.004Z,30.90
2019-04-30T05:04:19.705Z,32.00
2019-04-30T05:05:19.242Z,30.50
2019-04-30T05:06:20.687Z,31.70
2019-04-30T05:07:17.099Z,33.10
2019-04-30T05:08:18.558Z,34.40
2019-04-30T05:09:17.174Z,32.10
2019-04-30T05:10:19.065Z,29.50
2019-04-30T05:11:19.099Z,34.10
2019-04-30T05:12:18.561Z,32.10
2019-04-30T05:13:19.069Z,31.00
2019-04-30T05:14:19.031Z,31.10
2019-04-30T05:15:19.304Z,30.30
2019-04-30T05:16:18.915Z,30.90
2019-04-30T05:17:17.182Z,33.50
2019-04-30T05:18:19.045Z,40.10
2019-04-30T05:19:18.659Z,32.00
2019-04-30T05:20:19.279Z,31.30
2019-04-30T05:21:18.790Z,29.40
2019-04-30T05:22:18.961Z,30.50
2019-04-30T05:23:17.239Z,32.00
2019-04-30T05:24:18.909Z,27.50
2019-04-30T05:25:18.662Z,29.40
2019-04-30T05:26:19.063Z,27.80
2019-04-30T05:27:17.295Z,31.50
2019-04-30T05:28:18.965Z,33.40
2019-04-30T05:29:19.071Z,29.20
2019-04-30T05:30:19.367Z,29.90
2019-04-30T05:31:18.438Z,28.10
2019-04-30T05:32:19.584Z,29.10
2019-04-30T05:33:18.642Z,28.20
2019-04-30T05:34:18.869Z,28.20
2019-04-30T05:35:18.575Z,28.70
2019-04-30T05:36:19.187Z,28.10
2019-04-30T05:37:18.687Z,28.50
2019-04-30T05:38:18.984Z,28.40
2019-04-30T05:39:18.885Z,26.70
2019-04-30T05:40:18.901Z,30.10
2019-04-30T05:41:19.152Z,27.50
2019-04-30T05:43:19.219Z,27.60
2019-04-30T05:44:18.538Z,26.30
2019-04-30T05:45:19.241Z,27.10
2019-04-30T05:46:19.471Z,25.50
2019-04-30T05:47:19.390Z,28.00
2019-04-30T05:48:18.575Z,26.70
2019-04-30T05:49:18.856Z,28.60
2019-04-30T05:50:19.774Z,26.60
2019-04-30T05:51:19.386Z,28.90
2019-04-30T05:52:19.685Z,26.90
2019-04-30T05:53:19.016Z,25.80
2019-04-30T05:54:19.018Z,27.40
2019-04-30T05:55:19.597Z,26.30
2019-04-30T05:56:19.304Z,28.60
2019-04-30T05:57:19.578Z,26.50
2019-04-30T05:58:19.787Z,26.10
2019-04-30T05:59:20.410Z,28.00
2019-04-30T06:00:19.063Z,27.70
2019-04-30T06:01:19.660Z,28.10
2019-04-30T06:02:19.268Z,25.90
2019-04-30T06:03:27.548Z,27.50
2019-04-30T06:04:19.291Z,29.00
2019-04-30T06:05:18.809Z,29.80
2019-04-30T06:06:19.325Z,25.80
2019-04-30T06:07:18.980Z,28.20
2019-04-30T06:08:19.235Z,27.50
2019-04-30T06:09:30.784Z,25.30
2019-04-30T06:10:19.309Z,25.40
2019-04-30T06:11:19.214Z,26.40
2019-04-30T06:12:18.754Z,27.70
2019-04-30T06:14:18.615Z,26.00
2019-04-30T06:15:19.371Z,27.30
2019-04-30T06:16:18.848Z,25.80
2019-04-30T06:17:19.718Z,27.40
2019-04-30T06:18:18.606Z,27.20
2019-04-30T06:19:19.516Z,26.30
2019-04-30T06:20:20.895Z,25.80
2019-04-30T06:21:21.340Z,27.30
2019-04-30T06:23:19.471Z,27.90
2019-04-30T06:24:18.819Z,25.10
2019-04-30T06:25:30.466Z,26.50
2019-04-30T06:26:20.722Z,30.60
2019-04-30T06:27:19.154Z,25.40
2019-04-30T06:28:19.602Z,27.70
2019-04-30T06:29:18.978Z,27.70
2019-04-30T06:30:19.850Z,27.30
2019-04-30T06:31:22.307Z,27.40
2019-04-30T06:32:18.650Z,25.80
2019-04-30T06:33:19.307Z,27.60
2019-04-30T06:34:19.755Z,26.90
2019-04-30T06:35:19.357Z,25.30
2019-04-30T06:36:19.036Z,25.30
2019-04-30T06:37:19.411Z,27.60
2019-04-30T06:38:18.608Z,26.70
2019-04-30T06:39:18.752Z,28.60
2019-04-30T06:40:19.616Z,28.50
2019-04-30T06:41:19.819Z,30.10
2019-04-30T06:42:19.473Z,28.90
2019-04-30T06:43:19.062Z,27.10
2019-04-30T06:44:19.473Z,25.00
2019-04-30T06:45:19.131Z,26.00
2019-04-30T06:46:18.752Z,27.20
2019-04-30T06:47:26.607Z,29.30
2019-04-30T06:48:19.896Z,27.40
2019-04-30T06:49:19.483Z,30.10
2019-04-30T06:50:19.431Z,28.10
2019-04-30T06:51:18.927Z,29.40
2019-04-30T06:52:23.023Z,26.70
2019-04-30T06:53:19.271Z,31.20
2019-04-30T06:54:19.155Z,29.20
2019-04-30T06:55:19.259Z,27.60
2019-04-30T06:56:18.909Z,30.60
2019-04-30T06:57:19.846Z,28.30
2019-04-30T06:58:20.495Z,27.50
2019-04-30T06:59:20.278Z,29.30
2019-04-30T07:00:20.776Z,28.20
2019-04-30T07:01:19.071Z,30.60
2019-04-30T07:02:19.749Z,31.90
2019-04-30T07:03:19.136Z,32.10
2019-04-30T07:04:19.477Z,29.90
2019-04-30T07:06:29.219Z,31.50
2019-04-30T07:07:22.670Z,32.50
2019-04-30T07:08:18.998Z,32.00
2019-04-30T07:09:19.686Z,33.30
2019-04-30T07:10:20.419Z,33.60
2019-04-30T07:11:19.487Z,34.50
2019-04-30T07:12:27.304Z,36.40
2019-04-30T07:13:18.847Z,33.50
2019-04-30T07:14:19.544Z,37.20
2019-04-30T07:15:19.672Z,36.00
2019-04-30T07:16:19.091Z,33.40
2019-04-30T07:17:19.563Z,38.30
2019-04-30T07:18:19.024Z,35.50
2019-04-30T07:19:29.920Z,35.30
2019-04-30T07:20:19.219Z,36.60
2019-04-30T07:21:19.777Z,37.00
2019-04-30T07:22:20.652Z,36.20
2019-04-30T07:23:18.929Z,37.70
2019-04-30T07:24:20.713Z,35.90
2019-04-30T07:25:19.521Z,35.80
2019-04-30T07:26:23.308Z,36.30
2019-04-30T07:27:23.718Z,35.20
2019-04-30T07:28:19.479Z,35.40
2019-04-30T07:29:19.626Z,33.20
2019-04-30T07:30:19.200Z,35.40
2019-04-30T07:31:19.349Z,34.90
2019-04-30T07:32:19.780Z,34.90
2019-04-30T07:33:20.723Z,37.40
2019-04-30T07:34:19.610Z,36.40
2019-04-30T07:35:19.591Z,36.50
2019-04-30T07:36:19.516Z,37.90
2019-04-30T07:37:24.103Z,38.90
2019-04-30T07:38:19.491Z,36.60
2019-04-30T07:39:19.300Z,37.00
2019-04-30T07:40:19.174Z,34.70
2019-04-30T07:41:19.250Z,35.80
2019-04-30T07:42:19.755Z,38.80
2019-04-30T07:43:19.165Z,39.10
2019-04-30T07:44:30.971Z,40.60
2019-04-30T07:45:19.683Z,34.60
2019-04-30T07:46:19.952Z,39.00
2019-04-30T07:47:19.716Z,34.60
2019-04-30T07:48:25.684Z,36.50
2019-04-30T07:49:20.518Z,37.30
2019-04-30T07:50:21.335Z,37.00
2019-04-30T07:51:21.074Z,36.70
2019-04-30T07:52:21.492Z,37.10
2019-04-30T07:53:19.223Z,37.50
2019-04-30T07:54:19.142Z,33.80
2019-04-30T07:55:19.756Z,34.60
2019-04-30T07:56:25.750Z,38.70
2019-04-30T07:57:20.082Z,35.70
2019-04-30T07:58:20.495Z,35.90
2019-04-30T07:59:20.206Z,35.80
2019-04-30T08:00:19.563Z,35.10
2019-04-30T08:01:19.712Z,33.80
2019-04-30T08:02:20.870Z,34.80
2019-04-30T08:03:20.536Z,36.50
2019-04-30T08:04:19.593Z,35.30
2019-04-30T08:05:20.003Z,33.70
2019-04-30T08:06:22.196Z,35.30
2019-04-30T08:07:20.131Z,38.10
2019-04-30T08:09:22.108Z,40.60
2019-04-30T08:09:35.581Z,39.40
2019-04-30T08:10:19.349Z,39.20
2019-04-30T08:11:25.741Z,39.70
2019-04-30T08:12:26.117Z,40.60
2019-04-30T08:13:21.837Z,41.50
2019-04-30T08:14:21.224Z,43.10
2019-04-30T08:15:19.934Z,41.80
2019-04-30T08:16:19.624Z,41.20
2019-04-30T08:17:19.444Z,41.10
2019-04-30T08:18:19.457Z,39.30
2019-04-30T08:19:19.478Z,42.30
2019-04-30T08:20:19.820Z,38.00
2019-04-30T08:21:19.587Z,39.50
2019-04-30T08:22:19.754Z,41.10
2019-04-30T08:23:33.081Z,38.30
2019-04-30T08:24:20.299Z,38.90
2019-04-30T08:25:21.900Z,40.50
2019-04-30T08:26:19.575Z,37.30
2019-04-30T08:27:19.820Z,37.70
2019-04-30T08:28:19.593Z,37.20
2019-04-30T08:29:19.605Z,38.10
2019-04-30T08:30:26.124Z,36.00
2019-04-30T08:31:19.723Z,36.90
2019-04-30T08:32:19.654Z,38.30
2019-04-30T08:33:19.653Z,37.90
2019-04-30T08:34:20.171Z,36.30
2019-04-30T08:35:19.882Z,38.70
2019-04-30T08:36:19.809Z,38.10
2019-04-30T08:37:20.349Z,36.50
2019-04-30T08:38:19.722Z,35.90
2019-04-30T08:39:19.828Z,37.60
2019-04-30T08:40:20.074Z,35.40
2019-04-30T08:41:20.030Z,34.70
2019-04-30T08:42:30.709Z,36.20
2019-04-30T08:43:19.928Z,39.60
2019-04-30T08:44:21.228Z,37.80
2019-04-30T08:45:19.909Z,35.00
2019-04-30T08:46:19.837Z,35.60
2019-04-30T08:47:21.269Z,36.10
2019-04-30T08:49:20.269Z,36.00
2019-04-30T08:50:20.815Z,35.40
2019-04-30T08:51:20.319Z,36.20
2019-04-30T08:52:20.454Z,33.90
2019-04-30T08:53:27.516Z,34.60
2019-04-30T08:54:20.727Z,36.10
2019-04-30T08:55:22.445Z,37.50
2019-04-30T08:56:22.013Z,33.90
2019-04-30T08:57:20.048Z,32.50
2019-04-30T08:58:20.547Z,35.10
2019-04-30T08:59:20.010Z,35.30
2019-04-30T09:00:20.659Z,35.70
2019-04-30T09:01:20.611Z,32.80
2019-04-30T09:02:20.052Z,31.60
2019-04-30T09:03:20.057Z,30.90
2019-04-30T09:04:20.272Z,28.80
2019-04-30T09:05:20.097Z,28.40
2019-04-30T09:06:20.108Z,31.40
2019-04-30T09:07:20.167Z,28.60
2019-04-30T09:08:23.540Z,29.20
2019-04-30T09:09:20.135Z,31.30
2019-04-30T09:10:20.164Z,31.40
2019-04-30T09:11:27.351Z,31.60
2019-04-30T09:12:20.180Z,27.70
2019-04-30T09:13:20.182Z,32.40
2019-04-30T09:14:20.226Z,30.50
2019-04-30T09:15:20.223Z,33.90
2019-04-30T09:16:20.315Z,32.00
2019-04-30T09:17:20.246Z,30.60
2019-04-30T09:18:20.260Z,32.60
2019-04-30T09:19:21.297Z,29.60
2019-04-30T09:20:20.322Z,30.80
2019-04-30T09:21:20.376Z,32.30
2019-04-30T09:22:20.507Z,31.60
2019-04-30T09:23:21.330Z,31.60
2019-04-30T09:26:20.424Z,31.20
2019-04-30T09:27:20.440Z,28.80
2019-04-30T09:28:20.393Z,30.70
2019-04-30T09:29:20.429Z,31.60
2019-04-30T09:30:21.028Z,31.50
2019-04-30T09:31:20.666Z,29.10
2019-04-30T09:32:20.442Z,32.10
2019-04-30T09:33:20.474Z,28.10
2019-04-30T09:34:21.231Z,27.90
2019-04-30T09:35:20.826Z,27.40
2019-04-30T09:36:20.959Z,27.40
2019-04-30T09:37:20.917Z,28.90
2019-04-30T09:38:20.566Z,29.50
2019-04-30T09:39:22.852Z,28.70
2019-04-30T09:40:21.202Z,28.80
2019-04-30T09:41:20.688Z,29.30
2019-04-30T09:42:20.743Z,27.80
2019-04-30T09:43:20.596Z,26.60
2019-04-30T09:44:20.612Z,26.20
2019-04-30T09:45:20.622Z,28.30
2019-04-30T09:46:26.725Z,28.20
2019-04-30T09:47:20.650Z,29.50
2019-04-30T09:48:20.659Z,28.20
2019-04-30T09:49:20.684Z,31.10
2019-04-30T09:50:20.707Z,30.50
2019-04-30T09:51:24.126Z,26.70
2019-04-30T09:52:21.017Z,27.20
2019-04-30T09:53:20.970Z,27.30
2019-04-30T09:54:21.155Z,25.80
2019-04-30T09:55:20.768Z,26.20
2019-04-30T09:56:21.090Z,25.10
2019-04-30T09:57:20.798Z,26.70
2019-04-30T09:58:21.319Z,24.80
2019-04-30T09:59:20.863Z,26.40
2019-04-30T10:00:21.113Z,25.60
2019-04-30T10:01:22.145Z,26.10
2019-04-30T10:02:20.878Z,26.10
2019-04-30T10:03:21.656Z,27.40
2019-04-30T10:04:21.504Z,27.70
2019-04-30T10:05:21.034Z,29.80
2019-04-30T10:06:20.913Z,29.60
2019-04-30T10:07:20.999Z,28.10
2019-04-30T10:08:21.423Z,28.50
2019-04-30T10:09:20.984Z,30.70
2019-04-30T10:10:20.979Z,28.20
2019-04-30T10:11:20.986Z,29.10
2019-04-30T10:12:21.046Z,31.00
2019-04-30T10:13:21.039Z,28.20
2019-04-30T10:14:21.064Z,29.80
2019-04-30T10:15:21.079Z,28.60
2019-04-30T10:16:21.064Z,29.70
2019-04-30T10:17:21.077Z,28.50
2019-04-30T10:18:21.089Z,27.70
2019-04-30T10:19:21.164Z,28.40
2019-04-30T10:20:21.105Z,29.50
2019-04-30T10:21:21.642Z,28.70
2019-04-30T10:22:21.202Z,28.60
2019-04-30T10:23:21.277Z,27.30
2019-04-30T10:24:21.651Z,30.60
2019-04-30T10:25:21.305Z,28.20
2019-04-30T10:27:21.268Z,27.60
2019-04-30T10:28:21.269Z,26.50
2019-04-30T10:29:21.342Z,26.90
2019-04-30T10:30:21.600Z,28.10
2019-04-30T10:31:21.357Z,30.10
2019-04-30T10:32:21.285Z,28.90
2019-04-30T10:33:21.336Z,28.20
2019-04-30T10:34:21.333Z,24.40
2019-04-30T10:35:21.345Z,23.30
2019-04-30T10:36:21.413Z,24.90
2019-04-30T10:37:21.375Z,25.50
2019-04-30T10:38:21.373Z,22.40
2019-04-30T10:39:21.731Z,22.90
2019-04-30T10:40:21.420Z,22.90
2019-04-30T10:41:21.419Z,23.70
2019-04-30T10:42:21.443Z,26.10
2019-04-30T10:43:21.444Z,24.20
2019-04-30T10:44:21.501Z,23.30
2019-04-30T10:45:21.485Z,22.30
2019-04-30T10:46:21.495Z,22.60
2019-04-30T10:47:22.459Z,24.00
2019-04-30T10:48:21.820Z,22.20
2019-04-30T10:49:21.540Z,21.80
2019-04-30T10:50:22.327Z,21.40
2019-04-30T10:51:21.624Z,21.60
2019-04-30T10:52:22.405Z,20.90
2019-04-30T10:53:21.582Z,21.00
2019-04-30T10:54:26.056Z,20.40
2019-04-30T10:55:21.650Z,20.00
2019-04-30T10:56:22.474Z,21.00
2019-04-30T10:57:22.735Z,20.00
2019-04-30T10:58:21.767Z,20.70
2019-04-30T10:59:21.724Z,21.20
2019-04-30T11:00:21.689Z,21.30
2019-04-30T11:02:21.725Z,20.90
2019-04-30T11:03:23.074Z,19.80
2019-04-30T11:04:21.831Z,18.60
2019-04-30T11:05:21.766Z,19.40
2019-04-30T11:06:21.763Z,19.00
2019-04-30T11:07:21.798Z,20.00
2019-04-30T11:08:21.782Z,20.50
2019-04-30T11:09:22.453Z,21.10
2019-04-30T11:10:22.179Z,21.30
2019-04-30T11:11:21.842Z,21.00
2019-04-30T11:12:21.837Z,20.10
2019-04-30T11:13:21.879Z,23.70
2019-04-30T11:14:21.882Z,20.70
2019-04-30T11:15:21.902Z,19.80
2019-04-30T11:16:21.913Z,19.20
2019-04-30T11:17:22.060Z,18.80
2019-04-30T11:18:22.144Z,17.20
2019-04-30T11:19:23.231Z,16.50
2019-04-30T11:20:22.439Z,14.90
2019-04-30T11:22:22.120Z,18.70
2019-04-30T11:23:22.385Z,18.00
2019-04-30T11:24:22.153Z,18.80
2019-04-30T11:25:22.367Z,21.00
2019-04-30T11:26:22.527Z,18.40
2019-04-30T11:27:22.469Z,19.20
2019-04-30T11:28:22.694Z,18.80
2019-04-30T11:29:23.269Z,18.90
2019-04-30T11:30:24.400Z,15.90
2019-04-30T11:31:22.285Z,18.60
2019-04-30T11:32:22.410Z,18.10
2019-04-30T11:33:22.366Z,18.00
2019-04-30T11:34:22.167Z,25.70
2019-04-30T11:35:22.176Z,36.40
2019-04-30T11:36:22.195Z,23.80
2019-04-30T11:37:22.228Z,17.60
2019-04-30T11:38:22.209Z,15.80
2019-04-30T11:39:22.243Z,16.50
2019-04-30T11:40:31.505Z,16.60
2019-04-30T11:41:30.082Z,23.60
2019-04-30T11:42:22.277Z,18.80
2019-04-30T11:43:22.287Z,18.60
2019-04-30T11:44:31.023Z,19.40
2019-04-30T11:45:22.324Z,17.70
2019-04-30T11:46:22.342Z,20.00
2019-04-30T11:47:22.339Z,18.30
2019-04-30T11:48:22.371Z,17.50
2019-04-30T11:49:22.384Z,16.30
2019-04-30T11:50:22.393Z,18.40
2019-04-30T11:51:22.411Z,16.20
2019-04-30T11:52:22.428Z,15.60
2019-04-30T11:53:27.700Z,14.00
2019-04-30T11:54:22.444Z,13.20
2019-04-30T11:55:22.571Z,14.10
2019-04-30T11:56:22.781Z,13.60
2019-04-30T11:57:22.942Z,12.90
2019-04-30T11:58:22.553Z,14.10
2019-04-30T11:59:22.523Z,15.80
2019-04-30T12:00:22.619Z,17.80
2019-04-30T12:01:22.584Z,14.60
2019-04-30T12:02:22.794Z,15.60
2019-04-30T12:03:22.680Z,15.20
2019-04-30T12:04:22.915Z,15.00
2019-04-30T12:05:22.613Z,15.50
2019-04-30T12:06:22.709Z,13.20
2019-04-30T12:07:22.665Z,14.30
2019-04-30T12:08:22.692Z,14.30
2019-04-30T12:09:22.698Z,15.20
2019-04-30T12:10:22.677Z,14.60
2019-04-30T12:11:22.699Z,14.10
2019-04-30T12:12:22.731Z,14.30
2019-04-30T12:13:22.748Z,14.40
2019-04-30T12:14:23.255Z,12.50
2019-04-30T12:15:22.754Z,13.80
2019-04-30T12:16:22.769Z,13.00
2019-04-30T12:17:22.824Z,13.80
2019-04-30T12:18:22.823Z,13.20
2019-04-30T12:19:22.823Z,13.40
2019-04-30T12:20:22.833Z,13.80
2019-04-30T12:21:22.855Z,14.50
2019-04-30T12:22:22.901Z,15.60
2019-04-30T12:23:22.887Z,14.10
2019-04-30T12:24:22.897Z,14.70
2019-04-30T12:25:22.907Z,15.30
2019-04-30T12:26:23.248Z,14.30
2019-04-30T12:27:22.986Z,14.00
2019-04-30T12:28:22.964Z,14.50
2019-04-30T12:29:22.986Z,15.10
2019-04-30T12:30:22.995Z,15.30
2019-04-30T12:31:23.018Z,16.40
2019-04-30T12:32:23.027Z,15.20
2019-04-30T12:33:23.033Z,14.80
2019-04-30T12:34:23.038Z,13.80
2019-04-30T12:35:23.060Z,14.10
2019-04-30T12:36:23.085Z,13.90
2019-04-30T12:37:23.141Z,14.60
2019-04-30T12:38:23.320Z,13.60
2019-04-30T12:39:23.176Z,13.70
2019-04-30T12:40:28.735Z,14.70
2019-04-30T12:41:23.209Z,14.60
2019-04-30T12:42:23.192Z,14.80
2019-04-30T12:43:23.189Z,14.10
2019-04-30T12:44:23.193Z,13.60
2019-04-30T12:45:23.217Z,13.00
2019-04-30T12:46:23.223Z,14.80
2019-04-30T12:47:23.244Z,14.10
2019-04-30T12:48:23.250Z,17.10
2019-04-30T12:49:23.282Z,15.20
2019-04-30T12:51:23.311Z,14.70
2019-04-30T12:52:23.556Z,15.00
2019-04-30T12:53:23.324Z,19.40
2019-04-30T12:54:23.375Z,15.60
2019-04-30T12:55:23.356Z,14.40
2019-04-30T12:56:27.133Z,16.70
2019-04-30T12:57:23.493Z,14.50
2019-04-30T12:58:23.399Z,15.60
2019-04-30T12:59:23.412Z,13.80
2019-04-30T13:00:23.444Z,13.80
2019-04-30T13:01:23.454Z,14.70
2019-04-30T13:02:23.463Z,16.30
2019-04-30T13:03:23.495Z,14.20
2019-04-30T13:04:23.508Z,15.80
2019-04-30T13:05:23.523Z,17.60
2019-04-30T13:06:24.083Z,15.30
2019-04-30T13:07:24.249Z,14.60